Time;durP1;ratioP1;P1;durP2;ratioP2;P2;SDS_P1;SDS_P2;PMS_P1;PMS_P2;Temp;Humidity;BMP_temperature;BMP_pressure;BME280_temperature;BME280_humidity;BME280_pressure;Samples;Min_cycle;Max_cycle;Signal;HPM_P1;HPM_P2
2023/11/11 00:00:17;;;;;;;8.38;4.53;;;;;;;9.02;100.00;99897.63;5337403;27;20567;-73
2023/11/11 00:02:49;;;;;;;5.05;3.75;;;;;;;9.01;100.00;99898.56;5337978;27;20027;-73
2023/11/11 00:05:21;;;;;;;6.60;4.22;;;;;;;8.99;100.00;99899.72;5337259;27;20346;-73
2023/11/11 00:07:53;;;;;;;6.30;4.03;;;;;;;8.96;100.00;99905.22;5337163;27;20039;-73
2023/11/11 00:10:25;;;;;;;6.78;4.20;;;;;;;8.83;100.00;99882.03;5338130;27;20045;-73
2023/11/11 00:12:57;;;;;;;4.90;3.72;;;;;;;8.90;100.00;99900.53;5339101;27;20035;-72
2023/11/11 00:15:32;;;;;;;5.93;3.55;;;;;;;8.84;100.00;99901.13;5336939;27;20026;-73
2023/11/11 00:18:03;;;;;;;5.22;3.97;;;;;;;8.86;100.00;99907.03;5337934;27;20031;-72
2023/11/11 00:20:35;;;;;;;5.32;3.78;;;;;;;8.83;100.00;99904.72;5336149;27;20528;-73
2023/11/11 00:23:07;;;;;;;5.75;3.80;;;;;;;8.79;100.00;99909.41;5330480;27;20429;-72
2023/11/11 00:25:42;;;;;;;6.97;3.90;;;;;;;8.84;100.00;99915.00;5338363;27;20463;-72
2023/11/11 00:28:15;;;;;;;9.55;3.65;;;;;;;8.77;100.00;99924.38;5337833;27;20045;-71
2023/11/11 00:30:47;;;;;;;4.60;3.70;;;;;;;8.83;100.00;99920.38;5339803;27;20432;-72
2023/11/11 00:33:19;;;;;;;4.43;3.53;;;;;;;8.72;100.00;99927.41;5338751;27;20028;-72
2023/11/11 00:35:51;;;;;;;4.25;3.63;;;;;;;8.68;100.00;99933.88;5339980;27;20486;-71
2023/11/11 00:38:24;;;;;;;5.70;3.90;;;;;;;8.69;100.00;99934.69;5337803;27;20114;-71
2023/11/11 00:40:55;;;;;;;6.60;3.15;;;;;;;8.63;100.00;99920.41;5336591;27;20038;-72
2023/11/11 00:43:27;;;;;;;5.93;3.17;;;;;;;8.59;100.00;99939.09;5335780;27;20027;-72
2023/11/11 00:45:59;;;;;;;6.80;3.50;;;;;;;8.56;100.00;99939.38;5337475;27;20114;-72
2023/11/11 00:48:31;;;;;;;4.53;3.15;;;;;;;8.53;100.00;99946.53;5329434;27;20026;-72
2023/11/11 00:51:04;;;;;;;5.45;3.22;;;;;;;8.50;100.00;99946.00;5336393;27;20522;-72
2023/11/11 00:53:35;;;;;;;8.75;3.40;;;;;;;8.57;100.00;99941.88;5336756;27;20594;-72
2023/11/11 00:56:07;;;;;;;7.40;3.25;;;;;;;8.55;100.00;99949.00;5337459;27;20023;-71
2023/11/11 00:58:39;;;;;;;5.68;3.85;;;;;;;8.57;100.00;99947.09;5337250;27;20033;-72
2023/11/11 01:01:11;;;;;;;5.22;3.40;;;;;;;8.55;100.00;99966.44;5338027;27;20129;-72
2023/11/11 01:03:43;;;;;;;4.57;3.20;;;;;;;8.57;100.00;99962.75;5339298;27;20104;-72
2023/11/11 01:06:15;;;;;;;5.97;3.17;;;;;;;8.64;100.00;99958.63;5338963;27;20445;-72
2023/11/11 01:08:47;;;;;;;4.38;2.50;;;;;;;8.63;100.00;99949.13;5337969;27;20396;-72
2023/11/11 01:11:20;;;;;;;4.53;2.10;;;;;;;8.68;100.00;99956.56;5335658;27;20042;-72
2023/11/11 01:13:52;;;;;;;5.18;2.00;;;;;;;8.69;100.00;99955.59;5315671;27;20043;-72
2023/11/11 01:16:24;;;;;;;4.72;2.15;;;;;;;8.66;100.00;99961.09;5328586;27;20023;-72
2023/11/11 01:18:56;;;;;;;5.95;2.53;;;;;;;8.62;100.00;99964.94;5335829;27;20050;-72
2023/11/11 01:21:29;;;;;;;6.65;2.63;;;;;;;8.64;100.00;99973.47;5335157;27;20504;-73
2023/11/11 01:24:01;;;;;;;5.60;3.03;;;;;;;8.64;100.00;99968.25;5336915;27;20030;-73
2023/11/11 01:26:34;;;;;;;8.38;2.55;;;;;;;8.61;100.00;99979.78;5332758;27;20031;-73
2023/11/11 01:29:06;;;;;;;5.22;2.58;;;;;;;8.56;100.00;99989.84;5337616;27;20023;-72
2023/11/11 01:31:37;;;;;;;4.93;2.33;;;;;;;8.53;100.00;99993.53;5334705;27;20023;-72
2023/11/11 01:34:10;;;;;;;4.97;3.20;;;;;;;8.52;100.00;99997.13;5335245;27;20033;-72
2023/11/11 01:36:42;;;;;;;6.35;2.72;;;;;;;8.53;100.00;99998.75;5334856;27;20504;-72
2023/11/11 01:39:14;;;;;;;4.70;2.50;;;;;;;8.52;100.00;99993.66;5336618;27;20031;-72
2023/11/11 01:41:45;;;;;;;3.13;1.95;;;;;;;8.54;100.00;99999.56;5335819;27;20137;-72
2023/11/11 01:44:17;;;;;;;4.43;2.42;;;;;;;8.56;100.00;99996.81;5319766;27;20110;-72
2023/11/11 01:46:50;;;;;;;6.18;1.90;;;;;;;8.62;100.00;99997.09;5353212;27;20090;-72
2023/11/11 01:49:23;;;;;;;4.70;1.90;;;;;;;8.63;100.00;99998.72;5344604;27;20020;-72
2023/11/11 01:51:55;;;;;;;4.70;2.17;;;;;;;8.63;100.00;99990.91;5312507;27;20148;-72
2023/11/11 01:54:29;;;;;;;3.90;2.22;;;;;;;8.62;100.00;99997.09;5337683;27;20048;-72
2023/11/11 01:57:04;;;;;;;;;;;;;;;9.32;100.00;100007.28;5336666;27;20049;-72
2023/11/11 01:59:38;;;;;;;3.78;1.65;;;;;;;8.70;100.00;100004.22;5334549;27;19922;-72
2023/11/11 02:02:11;;;;;;;4.55;1.60;;;;;;;8.59;100.00;99999.97;5334907;27;20046;-72
2023/11/11 02:04:43;;;;;;;8.20;1.87;;;;;;;8.65;100.00;100004.66;5337293;27;20377;-72
2023/11/11 02:07:15;;;;;;;3.50;1.48;;;;;;;8.60;100.00;100009.47;5336300;27;20023;-72
2023/11/11 02:09:47;;;;;;;5.50;1.25;;;;;;;8.56;100.00;100013.31;5327825;27;20024;-72
2023/11/11 02:12:20;;;;;;;3.03;1.00;;;;;;;8.58;100.00;100015.78;5334578;27;20038;-72
2023/11/11 02:14:52;;;;;;;3.88;1.40;;;;;;;8.60;100.00;100021.69;5335820;27;20276;-72
2023/11/11 02:17:24;;;;;;;5.15;1.13;;;;;;;8.58;100.00;100018.41;5335955;27;20035;-72
2023/11/11 02:19:58;;;;;;;3.83;1.00;;;;;;;8.65;100.00;100022.94;5335367;27;20544;-72
2023/11/11 02:22:30;;;;;;;4.13;1.20;;;;;;;8.65;100.00;100009.06;5334525;27;20038;-72
2023/11/11 02:25:05;;;;;;;2.60;0.95;;;;;;;8.65;100.00;100003.84;5334939;27;20457;-72
2023/11/11 02:27:37;;;;;;;3.03;0.80;;;;;;;8.66;100.00;100008.09;5335300;27;20037;-72
2023/11/11 02:30:11;;;;;;;3.30;1.15;;;;;;;8.65;100.00;100019.50;5335472;27;20400;-73
2023/11/11 02:32:43;;;;;;;2.85;1.10;;;;;;;8.65;100.00;100027.34;5312393;27;20400;-72
2023/11/11 02:35:15;;;;;;;3.90;1.05;;;;;;;8.63;100.00;100022.22;5333869;27;20029;-72
2023/11/11 02:37:47;;;;;;;3.63;0.95;;;;;;;8.65;100.00;100025.53;5319418;27;20382;-72
2023/11/11 02:40:19;;;;;;;2.28;0.77;;;;;;;8.61;100.00;100026.78;5333838;27;20044;-72
2023/11/11 02:42:51;;;;;;;3.50;1.05;;;;;;;8.60;100.00;100027.75;5330566;27;20023;-72
2023/11/11 02:45:23;;;;;;;3.17;0.90;;;;;;;8.60;100.00;100032.13;5333135;27;20127;-72
2023/11/11 02:47:55;;;;;;;2.85;0.88;;;;;;;8.65;100.00;100040.38;5334406;27;20031;-73
2023/11/11 02:50:27;;;;;;;2.42;0.70;;;;;;;8.64;100.00;100036.13;5331555;27;20041;-72
2023/11/11 02:52:59;;;;;;;4.85;1.20;;;;;;;8.66;100.00;100042.84;5331247;27;20032;-72
2023/11/11 02:55:31;;;;;;;2.58;0.82;;;;;;;8.66;100.00;100044.63;5336217;27;20065;-72
2023/11/11 02:58:03;;;;;;;2.78;0.80;;;;;;;8.68;100.00;100053.19;5310978;28;20520;-72
2023/11/11 03:00:39;;;;;;;2.13;0.90;;;;;;;8.70;100.00;100056.47;5334254;28;20136;-72
2023/11/11 03:03:11;;;;;;;2.17;0.95;;;;;;;8.71;100.00;100074.63;5336473;27;20031;-72
2023/11/11 03:05:43;;;;;;;2.67;1.00;;;;;;;8.74;100.00;100079.53;5335890;27;20031;-72
2023/11/11 03:08:15;;;;;;;5.43;1.38;;;;;;;8.67;100.00;100067.16;5337384;27;20477;-72
2023/11/11 03:10:47;;;;;;;4.97;1.05;;;;;;;8.74;100.00;100084.75;5316969;27;20612;-72
2023/11/11 03:13:19;;;;;;;3.45;0.95;;;;;;;8.75;100.00;100075.16;5339730;27;20031;-72
2023/11/11 03:15:52;;;;;;;4.90;1.10;;;;;;;8.65;100.00;100056.06;5340519;27;20039;-73
2023/11/11 03:18:23;;;;;;;2.90;1.08;;;;;;;8.77;100.00;100084.50;5340135;27;20046;-72
2023/11/11 03:20:55;;;;;;;3.38;1.20;;;;;;;8.72;100.00;100076.25;5339307;27;20030;-72
2023/11/11 03:23:27;;;;;;;5.13;1.20;;;;;;;8.74;100.00;100079.53;5341471;27;20054;-73
2023/11/11 03:25:59;;;;;;;2.92;0.85;;;;;;;8.78;100.00;100099.19;5339995;27;20027;-72
2023/11/11 03:28:31;;;;;;;5.30;1.40;;;;;;;8.78;100.00;100096.59;5339112;27;20027;-72
2023/11/11 03:31:03;;;;;;;4.65;1.17;;;;;;;8.79;100.00;100094.81;5331318;27;20028;-73
2023/11/11 03:33:35;;;;;;;3.00;1.17;;;;;;;8.78;100.00;100090.53;5329087;27;20468;-72
2023/11/11 03:36:07;;;;;;;3.10;1.00;;;;;;;8.76;100.00;100095.09;5340180;27;20373;-72
2023/11/11 03:38:38;;;;;;;4.18;1.20;;;;;;;8.75;100.00;100099.50;5339621;27;20057;-72
2023/11/11 03:41:10;;;;;;;3.42;1.00;;;;;;;8.75;100.00;100096.03;5337709;27;20035;-73
2023/11/11 03:43:42;;;;;;;4.63;1.45;;;;;;;8.75;100.00;100098.66;5337717;27;20026;-72
2023/11/11 03:46:14;;;;;;;3.85;1.00;;;;;;;8.71;100.00;100095.50;5339766;27;20527;-72
2023/11/11 03:48:46;;;;;;;1.80;0.88;;;;;;;8.67;100.00;100098.50;5338812;27;20027;-72
2023/11/11 03:51:18;;;;;;;4.60;1.13;;;;;;;8.65;100.00;100110.88;5336477;27;20031;-72
2023/11/11 03:53:50;;;;;;;3.58;1.10;;;;;;;8.62;100.00;100104.13;5338707;27;20031;-73
2023/11/11 03:56:23;;;;;;;3.30;1.10;;;;;;;8.64;100.00;100114.47;5338049;27;20038;-72
2023/11/11 03:58:54;;;;;;;3.05;1.45;;;;;;;8.61;100.00;100118.16;5319546;27;20050;-72
2023/11/11 04:01:26;;;;;;;5.35;1.15;;;;;;;8.55;100.00;100115.25;5334134;27;20047;-72
2023/11/11 04:03:58;;;;;;;5.55;1.20;;;;;;;8.49;100.00;100114.84;5337641;27;20118;-73
2023/11/11 04:06:30;;;;;;;4.28;0.90;;;;;;;8.50;100.00;100123.50;5339152;27;20389;-73
2023/11/11 04:09:05;;;;;;;4.43;1.23;;;;;;;8.48;100.00;100118.41;5337096;27;20023;-72
2023/11/11 04:11:37;;;;;;;3.67;1.00;;;;;;;8.43;100.00;100125.81;5338376;27;20042;-72
2023/11/11 04:14:09;;;;;;;5.78;1.25;;;;;;;8.38;100.00;100132.41;5336915;27;20019;-73
2023/11/11 04:16:44;;;;;;;5.13;1.00;;;;;;;8.32;100.00;100131.13;5339363;27;20498;-73
2023/11/11 04:19:16;;;;;;;3.88;1.08;;;;;;;8.29;100.00;100131.38;5336762;27;20031;-72
2023/11/11 04:21:50;;;;;;;3.58;1.23;;;;;;;8.28;100.00;100140.16;5338925;27;20251;-72
2023/11/11 04:24:21;;;;;;;;;;;;;;;8.96;100.00;100137.72;5337918;27;20027;-72
2023/11/11 04:26:53;;;;;;;7.15;1.30;;;;;;;8.22;100.00;100146.75;5330145;27;19918;-72
2023/11/11 04:29:25;;;;;;;4.75;1.65;;;;;;;8.13;100.00;100152.75;5338758;27;20227;-72
2023/11/11 04:31:57;;;;;;;5.78;1.38;;;;;;;8.06;100.00;100146.41;5338341;27;20049;-72
2023/11/11 04:34:29;;;;;;;8.65;1.58;;;;;;;8.00;100.00;100149.56;5334493;27;20034;-72
2023/11/11 04:37:02;;;;;;;5.18;1.40;;;;;;;7.97;100.00;100155.84;5337861;27;20038;-72
2023/11/11 04:39:34;;;;;;;7.93;1.73;;;;;;;7.98;100.00;100165.31;5338076;27;20392;-72
2023/11/11 04:42:06;;;;;;;4.93;1.70;;;;;;;7.90;100.00;100156.50;5337024;27;20030;-72
2023/11/11 04:44:38;;;;;;;4.88;1.55;;;;;;;7.92;100.00;100162.41;5337820;27;20031;-72
2023/11/11 04:47:10;;;;;;;5.82;1.80;;;;;;;7.89;100.00;100173.09;5337521;27;20034;-72
2023/11/11 04:49:42;;;;;;;8.53;1.87;;;;;;;7.90;100.00;100170.34;5338370;27;20027;-72
2023/11/11 04:52:14;;;;;;;5.65;2.30;;;;;;;7.86;100.00;100160.31;5338286;27;20038;-72
2023/11/11 04:54:47;;;;;;;9.45;2.85;;;;;;;7.86;100.00;100161.13;5321053;27;20034;-72
2023/11/11 04:57:19;;;;;;;5.03;2.70;;;;;;;7.82;100.00;100162.34;5339379;27;20477;-73
2023/11/11 04:59:50;;;;;;;7.18;3.00;;;;;;;7.83;100.00;100169.22;5336239;27;20026;-73
2023/11/11 05:02:22;;;;;;;8.15;3.50;;;;;;;7.82;100.00;100171.97;5335988;27;20033;-72
2023/11/11 05:04:54;;;;;;;7.35;3.28;;;;;;;7.83;100.00;100177.03;5337249;27;20031;-72
2023/11/11 05:07:26;;;;;;;7.07;3.42;;;;;;;7.85;100.00;100185.56;5335790;27;20020;-72
2023/11/11 05:09:59;;;;;;;9.45;4.03;;;;;;;7.84;100.00;100181.31;5337761;27;20111;-72
2023/11/11 05:12:33;;;;;;;9.05;3.92;;;;;;;7.83;100.00;100184.88;5337217;27;20034;-72
2023/11/11 05:15:13;;;;;;;6.93;3.50;;;;;;;7.80;100.00;100175.53;5339493;27;20023;-72
2023/11/11 05:17:46;;;;;;;9.35;3.58;;;;;;;7.79;100.00;100181.69;5337396;27;20031;-72
2023/11/11 05:20:18;;;;;;;7.45;3.78;;;;;;;7.82;100.00;100185.81;5331644;27;20019;-72
2023/11/11 05:22:50;;;;;;;6.90;3.53;;;;;;;7.77;100.00;100193.22;5335492;27;20041;-72
2023/11/11 05:25:22;;;;;;;10.32;4.18;;;;;;;7.75;100.00;100190.72;5337886;27;20033;-72
2023/11/11 05:27:54;;;;;;;7.88;4.30;;;;;;;7.77;100.00;100193.22;5336467;27;20031;-72
2023/11/11 05:30:26;;;;;;;5.95;4.35;;;;;;;7.70;100.00;100186.84;5336370;27;20480;-72
2023/11/11 05:32:58;;;;;;;11.18;4.65;;;;;;;7.70;100.00;100195.50;5335553;27;20027;-72
2023/11/11 05:35:30;;;;;;;7.20;4.30;;;;;;;7.67;100.00;100200.13;5318104;27;20045;-72
2023/11/11 05:38:02;;;;;;;6.93;4.10;;;;;;;7.69;100.00;100206.03;5337380;27;20031;-72
2023/11/11 05:40:34;;;;;;;7.40;4.13;;;;;;;7.64;100.00;100197.78;5336080;27;20037;-72
2023/11/11 05:43:07;;;;;;;9.48;4.60;;;;;;;7.59;100.00;100190.34;5336446;27;20494;-72
2023/11/11 05:45:39;;;;;;;6.03;4.25;;;;;;;7.59;100.00;100197.34;5338212;27;20027;-72
2023/11/11 05:48:11;;;;;;;10.73;4.87;;;;;;;7.59;100.00;100184.31;5328015;27;20027;-72
2023/11/11 05:50:44;;;;;;;9.05;4.35;;;;;;;7.54;100.00;100190.72;5337401;27;20041;-72
2023/11/11 05:53:17;;;;;;;10.20;5.35;;;;;;;7.56;100.00;100201.84;5335908;27;20023;-72
2023/11/11 05:55:50;;;;;;;13.15;5.13;;;;;;;7.55;100.00;100201.97;5336912;27;20039;-72
2023/11/11 05:58:21;;;;;;;6.03;4.82;;;;;;;7.57;100.00;100211.31;5335767;27;20015;-72
2023/11/11 06:00:53;;;;;;;7.55;5.10;;;;;;;7.50;100.00;100206.72;5335211;27;20496;-72
2023/11/11 06:03:25;;;;;;;10.85;5.13;;;;;;;7.50;100.00;100210.19;5334849;27;20403;-72
2023/11/11 06:05:57;;;;;;;10.18;6.00;;;;;;;7.48;100.00;100216.47;5318144;27;20409;-72
2023/11/11 06:08:29;;;;;;;7.88;4.60;;;;;;;7.46;100.00;100218.34;5314002;27;20404;-72
2023/11/11 06:11:02;;;;;;;8.98;5.15;;;;;;;7.48;100.00;100214.69;5334780;27;20039;-72
2023/11/11 06:13:33;;;;;;;9.32;5.70;;;;;;;7.49;100.00;100226.75;5336697;27;20034;-72
2023/11/11 06:16:06;;;;;;;8.65;5.85;;;;;;;7.50;100.00;100225.81;5327828;27;20027;-72
2023/11/11 06:18:37;;;;;;;11.00;6.15;;;;;;;7.44;100.00;100231.53;5338472;27;20393;-72
2023/11/11 06:21:09;;;;;;;8.38;5.80;;;;;;;7.39;100.00;100228.47;5335230;27;20034;-72
2023/11/11 06:23:42;;;;;;;10.98;5.63;;;;;;;7.45;100.00;100237.56;5337323;27;20063;-72
2023/11/11 06:26:14;;;;;;;10.15;5.63;;;;;;;7.50;100.00;100232.78;5337089;27;20031;-72
2023/11/11 06:28:48;;;;;;;11.60;5.68;;;;;;;7.47;100.00;100246.09;5336269;27;20029;-72
2023/11/11 06:31:20;;;;;;;10.05;6.32;;;;;;;7.46;100.00;100244.41;5335408;27;20062;-72
2023/11/11 06:33:52;;;;;;;9.90;5.22;;;;;;;7.46;100.00;100247.03;5336549;27;20114;-72
2023/11/11 06:36:24;;;;;;;11.30;5.65;;;;;;;7.48;100.00;100243.34;5335583;27;20031;-72
2023/11/11 06:38:56;;;;;;;9.10;6.13;;;;;;;7.46;100.00;100253.09;5315348;27;20477;-72
2023/11/11 06:41:28;;;;;;;9.73;6.68;;;;;;;7.41;100.00;100247.41;5331459;27;20031;-72
2023/11/11 06:44:00;;;;;;;8.30;5.88;;;;;;;7.45;100.00;100246.22;5328667;27;20027;-72
2023/11/11 06:46:32;;;;;;;10.30;5.82;;;;;;;7.44;100.00;100249.78;5337020;27;20035;-72
2023/11/11 06:49:04;;;;;;;11.95;6.60;;;;;;;7.42;100.00;100250.84;5336225;27;20027;-72
2023/11/11 06:51:36;;;;;;;9.45;5.70;;;;;;;7.46;100.00;100255.69;5336159;27;20491;-72
2023/11/11 06:54:09;;;;;;;7.72;5.53;;;;;;;7.44;100.00;100251.56;5335470;27;20396;-73
2023/11/11 06:56:41;;;;;;;12.73;6.60;;;;;;;7.45;100.00;100259.22;5337527;27;20019;-72
2023/11/11 06:59:13;;;;;;;12.18;6.68;;;;;;;7.42;100.00;100258.66;5336874;27;20027;-72
2023/11/11 07:01:45;;;;;;;11.93;5.90;;;;;;;7.37;100.00;100258.22;5332688;28;20051;-72
2023/11/11 07:04:17;;;;;;;10.80;6.85;;;;;;;7.42;100.00;100256.06;5334452;28;20027;-72
2023/11/11 07:06:49;;;;;;;10.32;6.95;;;;;;;7.44;100.00;100265.41;5336646;28;20239;-72
2023/11/11 07:09:21;;;;;;;8.43;6.30;;;;;;;7.45;100.00;100264.44;5333347;27;20490;-72
2023/11/11 07:11:52;;;;;;;10.27;6.57;;;;;;;7.48;100.00;100264.22;5324416;28;20724;-72
2023/11/11 07:14:25;;;;;;;11.68;6.88;;;;;;;7.50;100.00;100266.69;5317729;28;20395;-72
2023/11/11 07:16:57;;;;;;;13.33;7.00;;;;;;;7.55;100.00;100270.59;5335859;28;20035;-72
2023/11/11 07:19:30;;;;;;;9.45;6.53;;;;;;;7.55;100.00;100277.56;5337460;28;20288;-72
2023/11/11 07:22:02;;;;;;;9.50;7.28;;;;;;;7.61;100.00;100284.06;5336723;28;20461;-72
2023/11/11 07:24:34;;;;;;;9.90;6.87;;;;;;;7.60;100.00;100277.19;5333758;28;20031;-72
2023/11/11 07:27:06;;;;;;;13.13;7.30;;;;;;;7.62;100.00;100281.34;5316335;28;20039;-72
2023/11/11 07:29:38;;;;;;;11.05;7.95;;;;;;;7.63;100.00;100290.00;5334622;27;20023;-72
2023/11/11 07:32:12;;;;;;;13.13;7.07;;;;;;;7.66;100.00;100284.53;5333548;28;20035;-72
2023/11/11 07:34:43;;;;;;;12.85;8.23;;;;;;;7.69;100.00;100290.31;5331951;28;20027;-72
2023/11/11 07:37:15;;;;;;;14.27;8.38;;;;;;;7.75;100.00;100291.59;5334227;28;20392;-72
2023/11/11 07:39:47;;;;;;;12.07;7.60;;;;;;;7.77;100.00;100290.53;5307812;28;20043;-72
2023/11/11 07:42:19;;;;;;;11.60;7.95;;;;;;;7.79;100.00;100291.22;5316212;28;20047;-72
2023/11/11 07:44:53;;;;;;;11.95;8.15;;;;;;;7.82;100.00;100295.34;5333625;28;20023;-72
2023/11/11 07:47:25;;;;;;;11.13;8.13;;;;;;;7.84;100.00;100296.06;5332332;28;20028;-72
2023/11/11 07:49:58;;;;;;;13.57;8.37;;;;;;;7.88;100.00;100292.25;5332530;27;20405;-72
2023/11/11 07:52:30;;;;;;;14.13;8.20;;;;;;;7.88;100.00;100300.06;5339057;27;20288;-72
2023/11/11 07:55:02;;;;;;;12.93;8.18;;;;;;;7.90;100.00;100303.38;5315919;27;20035;-72
2023/11/11 07:57:33;;;;;;;13.32;8.50;;;;;;;7.89;100.00;100312.16;5340322;27;20050;-72
2023/11/11 08:00:07;;;;;;;14.05;8.35;;;;;;;7.88;100.00;100310.50;5339811;27;20084;-72
2023/11/11 08:02:39;;;;;;;11.90;8.18;;;;;;;7.89;100.00;100317.38;5335421;27;20034;-72
2023/11/11 08:05:11;;;;;;;12.77;7.65;;;;;;;7.88;100.00;100320.09;5318261;27;20039;-72
2023/11/11 08:07:43;;;;;;;13.45;7.85;;;;;;;7.88;100.00;100326.16;5331663;27;20053;-73
2023/11/11 08:10:15;;;;;;;10.38;7.88;;;;;;;7.87;100.00;100324.47;5314888;27;20043;-73
2023/11/11 08:12:46;;;;;;;14.40;8.40;;;;;;;7.90;100.00;100333.84;5337414;27;20034;-73
2023/11/11 08:15:22;;;;;;;13.73;8.77;;;;;;;7.88;100.00;100338.34;5336116;27;20027;-73
2023/11/11 08:17:54;;;;;;;11.60;8.27;;;;;;;7.87;100.00;100345.34;5337517;27;20039;-73
2023/11/11 08:20:26;;;;;;;13.10;8.48;;;;;;;7.91;100.00;100338.91;5336323;27;20026;-73
2023/11/11 08:22:57;;;;;;;13.25;9.02;;;;;;;7.93;100.00;100350.06;5337330;27;20037;-73
2023/11/11 08:25:29;;;;;;;13.25;9.38;;;;;;;7.91;100.00;100344.13;5336129;27;20361;-73
2023/11/11 08:28:01;;;;;;;13.65;8.15;;;;;;;7.94;100.00;100356.13;5333943;27;20015;-73
2023/11/11 08:30:33;;;;;;;13.65;8.90;;;;;;;7.96;100.00;100349.81;5337064;27;20042;-73
2023/11/11 08:33:05;;;;;;;14.20;8.82;;;;;;;7.99;100.00;100349.59;5331753;27;20024;-73
2023/11/11 08:35:37;;;;;;;11.68;9.20;;;;;;;8.02;100.00;100353.69;5332825;27;20097;-73
2023/11/11 08:38:09;;;;;;;12.60;8.73;;;;;;;8.04;100.00;100351.81;5336372;27;20460;-73
2023/11/11 08:40:41;;;;;;;13.25;8.02;;;;;;;8.11;100.00;100359.97;5338880;27;20480;-73
2023/11/11 08:43:14;;;;;;;14.23;9.13;;;;;;;8.15;100.00;100356.97;5335873;27;20027;-72
2023/11/11 08:45:46;;;;;;;9.75;8.38;;;;;;;8.29;100.00;100368.88;5339014;27;20026;-73
2023/11/11 08:48:18;;;;;;;14.23;8.75;;;;;;;8.34;100.00;100365.91;5336346;27;20023;-72
2023/11/11 08:50:50;;;;;;;12.98;9.27;;;;;;;8.41;100.00;100370.50;5336802;27;20031;-73
2023/11/11 08:53:22;;;;;;;15.00;8.68;;;;;;;8.46;100.00;100378.78;5336361;27;20038;-73
2023/11/11 08:55:55;;;;;;;12.25;8.75;;;;;;;8.48;100.00;100368.19;5338474;27;20479;-73
2023/11/11 08:58:27;;;;;;;14.80;8.63;;;;;;;8.49;100.00;100370.69;5336212;27;20039;-73
2023/11/11 09:01:00;;;;;;;12.55;7.70;;;;;;;8.55;100.00;100369.34;5336597;27;20124;-73
2023/11/11 09:03:32;;;;;;;12.95;8.45;;;;;;;8.50;100.00;100366.28;5336215;27;20039;-73
2023/11/11 09:06:05;;;;;;;11.73;8.73;;;;;;;8.50;100.00;100366.28;5333371;27;20503;-73
2023/11/11 09:08:37;;;;;;;11.20;7.63;;;;;;;8.55;100.00;100381.56;5335525;27;20023;-73
2023/11/11 09:11:12;;;;;;;11.48;8.00;;;;;;;8.62;100.00;100380.94;5335865;27;20392;-73
2023/11/11 09:13:44;;;;;;;16.25;8.27;;;;;;;8.58;100.00;100379.53;5335972;27;20031;-73
2023/11/11 09:16:19;;;;;;;12.05;7.43;;;;;;;8.64;100.00;100380.81;5338564;27;20053;-73
2023/11/11 09:18:51;;;;;;;14.55;8.32;;;;;;;8.67;100.00;100380.53;5334451;27;20027;-73
2023/11/11 09:21:24;;;;;;;11.35;7.45;;;;;;;8.71;100.00;100382.78;5334532;27;20023;-73
2023/11/11 09:23:57;;;;;;;13.47;7.57;;;;;;;8.81;100.00;100380.19;5338630;27;20038;-73
2023/11/11 09:26:29;;;;;;;10.35;7.25;;;;;;;8.86;100.00;100366.75;5336457;27;20026;-73
2023/11/11 09:29:00;;;;;;;14.07;7.03;;;;;;;8.87;100.00;100376.25;5327179;27;20023;-73
2023/11/11 09:31:32;;;;;;;9.18;6.85;;;;;;;8.91;100.00;100375.84;5337113;27;20023;-73
2023/11/11 09:34:05;;;;;;;12.57;7.00;;;;;;;8.94;100.00;100373.00;5333994;27;20035;-73
2023/11/11 09:36:39;;;;;;;10.17;6.40;;;;;;;9.05;100.00;100377.28;5318038;27;20046;-73
2023/11/11 09:39:14;;;;;;;11.73;7.28;;;;;;;9.08;100.00;100384.03;5336448;27;20042;-73
2023/11/11 09:41:45;;;;;;;11.77;5.97;;;;;;;9.13;100.00;100389.69;5316902;27;20038;-73
2023/11/11 09:44:18;;;;;;;12.82;6.70;;;;;;;9.16;100.00;100377.19;5326311;27;20019;-73
2023/11/11 09:46:55;;;;;;;9.82;6.72;;;;;;;9.37;100.00;100377.13;5336206;27;20042;-73
2023/11/11 09:49:27;;;;;;;10.20;6.13;;;;;;;9.35;100.00;100372.97;5334931;27;20404;-73
2023/11/11 09:52:00;;;;;;;9.85;5.90;;;;;;;9.36;100.00;100385.94;5335597;27;20042;-73
2023/11/11 09:54:34;;;;;;;12.30;5.80;;;;;;;9.51;100.00;100381.16;5337049;27;20065;-73
2023/11/11 09:57:08;;;;;;;9.80;5.80;;;;;;;9.54;100.00;100383.47;5326327;27;20026;-73
2023/11/11 09:59:41;;;;;;;10.55;5.70;;;;;;;9.55;100.00;100387.75;5334752;27;20034;-73
2023/11/11 10:02:13;;;;;;;8.40;5.05;;;;;;;9.66;100.00;100389.41;5331904;27;20035;-73
2023/11/11 10:04:45;;;;;;;7.38;5.45;;;;;;;9.72;100.00;100396.72;5317674;27;20412;-72
2023/11/11 10:07:17;;;;;;;7.93;5.47;;;;;;;9.81;100.00;100393.31;5336531;27;20026;-73
2023/11/11 10:09:51;;;;;;;9.00;5.40;;;;;;;9.85;100.00;100397.31;5333386;27;20066;-73
2023/11/11 10:12:25;;;;;;;9.00;5.40;;;;;;;9.92;100.00;100402.78;5333725;27;20039;-73
2023/11/11 10:15:01;;;;;;;9.43;5.35;;;;;;;9.99;100.00;100406.53;5335164;27;20031;-73
2023/11/11 10:17:38;;;;;;;13.85;6.32;;;;;;;10.07;100.00;100403.22;5335098;27;20027;-73
2023/11/11 10:20:14;;;;;;;9.25;4.63;;;;;;;10.10;100.00;100403.78;5314899;27;20807;-73
2023/11/11 10:22:48;;;;;;;11.70;5.45;;;;;;;10.19;100.00;100407.34;5327633;27;20036;-73
2023/11/11 10:25:20;;;;;;;8.23;4.80;;;;;;;10.23;100.00;100403.50;5336649;27;20035;-73
2023/11/11 10:27:54;;;;;;;7.68;4.65;;;;;;;10.28;100.00;100403.94;5333964;27;20027;-73
2023/11/11 10:30:26;;;;;;;8.55;4.55;;;;;;;10.27;100.00;100412.78;5336323;27;20027;-73
2023/11/11 10:33:04;;;;;;;9.20;4.30;;;;;;;10.35;100.00;100405.03;5334603;27;20511;-73
2023/11/11 10:35:36;;;;;;;8.90;4.80;;;;;;;10.36;100.00;100404.06;5335675;27;20026;-73
2023/11/11 10:38:08;;;;;;;10.00;4.85;;;;;;;10.46;100.00;100409.31;5335804;27;20038;-73
2023/11/11 10:40:41;;;;;;;7.97;4.53;;;;;;;10.51;100.00;100408.88;5336777;27;20027;-73
2023/11/11 10:43:14;;;;;;;6.82;4.65;;;;;;;10.55;100.00;100412.88;5336431;27;20038;-73
2023/11/11 10:45:47;;;;;;;10.50;4.82;;;;;;;10.58;100.00;100408.19;5336150;27;20019;-73
2023/11/11 10:48:23;;;;;;;;;;;;;;;11.21;100.00;100418.03;5336304;27;20031;-73
2023/11/11 10:50:54;;;;;;;8.75;3.95;;;;;;;10.59;100.00;100416.88;5326341;27;19968;-73
2023/11/11 10:53:28;;;;;;;6.95;4.47;;;;;;;10.61;100.00;100415.75;5331951;27;20031;-73
2023/11/11 10:56:00;;;;;;;;;;;;;;;11.23;100.00;100416.13;5335335;27;20042;-73
2023/11/11 10:58:33;;;;;;;8.88;4.45;;;;;;;10.73;100.00;100416.44;5334807;27;19920;-73
2023/11/11 11:01:07;;;;;;;7.95;4.18;;;;;;;10.77;100.00;100409.94;5334096;27;20046;-73
2023/11/11 11:03:39;;;;;;;7.13;4.63;;;;;;;10.87;100.00;100413.38;5331025;28;20042;-73
2023/11/11 11:06:21;;;;;;;9.10;4.87;;;;;;;11.01;100.00;100414.69;5334531;28;20035;-73
2023/11/11 11:09:14;;;;;;;8.50;4.32;;;;;;;11.23;100.00;100416.13;5332452;28;20019;-73
2023/11/11 11:12:01;;;;;;;7.10;3.80;;;;;;;11.26;100.00;100415.00;5334944;28;20023;-73
2023/11/11 11:14:41;;;;;;;6.05;3.60;;;;;;;11.26;100.00;100412.38;5332709;28;20027;-73
2023/11/11 11:17:15;;;;;;;7.55;3.42;;;;;;;11.13;100.00;100418.75;5333994;28;20027;-73
2023/11/11 11:19:51;;;;;;;;;;;;;;;11.82;100.00;100422.72;5333071;28;20027;-73
2023/11/11 11:22:23;;;;;;;7.13;3.78;;;;;;;11.21;100.00;100412.78;5333930;28;19988;-73
2023/11/11 11:24:55;;;;;;;9.38;3.63;;;;;;;11.23;100.00;100416.13;5338081;27;21265;-73
2023/11/11 11:27:28;;;;;;;9.57;3.87;;;;;;;11.28;100.00;100419.13;5336346;27;20148;-73
2023/11/11 11:30:23;;;;;;;7.60;3.60;;;;;;;11.55;100.00;100406.97;5337175;27;20749;-73
2023/11/11 11:32:55;;;;;;;6.63;3.35;;;;;;;11.36;100.00;100416.59;5339343;27;20272;-74
2023/11/11 11:35:27;;;;;;;7.07;3.35;;;;;;;11.37;100.00;100420.06;5337505;27;20033;-73
2023/11/11 11:38:01;;;;;;;7.90;3.67;;;;;;;11.48;100.00;100417.25;5336773;27;20401;-73
2023/11/11 11:40:36;;;;;;;7.53;3.78;;;;;;;11.56;100.00;100419.13;5337815;27;20043;-73
2023/11/11 11:43:10;;;;;;;7.78;3.83;;;;;;;11.52;100.00;100412.53;5327534;27;20035;-73
2023/11/11 11:45:41;;;;;;;8.27;3.58;;;;;;;11.58;100.00;100427.69;5317859;27;20607;-73
2023/11/11 11:48:13;;;;;;;5.55;3.60;;;;;;;11.50;100.00;100419.72;5335794;27;20110;-76